Aérodrome :







RETROUVEZ-NOUS SUR...

 
LOGIN :

S'inscrire | Disclaimer

   EN    FR    IT 

 









Légende :    VFR   VFR Marginal   IFR   IFR Intensif   IFR Très Intensif
Visi : 
Plafond : 
>= 8 km
>= 3000ft
5 à 8 km
1000 à 3000 ft
1500m à 5 km
500 à 1000 ft
800 à 1500m
200 à 500 ft
< 800m
< 200 ft
Symboles :   Orages  Brouillard  Fortes neiges  Fortes précipitations  Vent > 20 kt






- Altitude de l'aérodrome : 40 ft
- Code IATA : YRF


CYCA - Cartwright

DERNIER METAR :
  • 180000Z AUTO 31016G32KT 9SM OVC019 M19/M24 A2990 RMK SLP129

METARs EXPIRÉS :
  • 172311Z AUTO 31020G33KT 9SM OVC023 M18/M23 A2991 RMK PRESFR SLP133
  • 172254Z AUTO 31015G26KT 9SM OVC025 M18/M22 A2993 RMK SLP140
  • 172200Z AUTO 30019G26KT 9SM OVC019 M18/M23 A2993 RMK SLP139

TAF AMD TAF CYCA
Valide du 18 à 00h jusqu'au 18 à 08h UTC


180021Z 1800/1808 31020G35KT P6SM BKN025
TEMPO 1800/1808 5SM -SHSN BKN020
BECMG 1805/1807 31030G45KT RMK FCST BASED ON AUTO OBS. NXT FCST BY 180200Z



MET'MAP, la Météo Aéronautique d'un coup d'oeil ! - Copyright ORBIFLY Décembre 2007 - Disclaimer

ORBIFLY MET'MAP TEAM :

Programmation & Développement : Alexandra Zaïnal
Sur une idée originale de : Baudouin d'Aumeries
Assistance à la programmation : Marc-Olivier Méhu
Soutien technique & logistique : Manuel Goepfert

Contact : metmap@orbifly.com




SOURCES & CREDITS :

   NOAA